sensor_id;sensor_type;location;lat;lon;timestamp;pressure;altitude;pressure_sealevel;temperature;humidity
46382;BME280;66809;52.974;-2.514;2023-10-31T00:01:40;989.5822947105332;;;9.178983697786789;42.501431749733186
46382;BME280;66809;52.974;-2.514;2023-10-31T00:03:40;989.5987600600135;;;9.154824112345475;42.55017771126719
46382;BME280;66809;52.974;-2.514;2023-10-31T00:05:41;989.6157091372339;;;9.146079064652005;42.60703266317915
46382;BME280;66809;52.974;-2.514;2023-10-31T00:07:40;989.6332999965173;;;9.128941489289419;42.66097688617769
46382;BME280;66809;52.974;-2.514;2023-10-31T00:09:40;989.6502167584885;;;9.104155726163537;42.70292997900246
46382;BME280;66809;52.974;-2.514;2023-10-31T00:11:41;989.6673374083969;;;9.100514631562792;42.739330075817385
46382;BME280;66809;52.974;-2.514;2023-10-31T00:13:40;989.6836593082371;;;9.09210868753477;42.77103741661467
46382;BME280;66809;52.974;-2.514;2023-10-31T00:15:41;989.7007105600561;;;9.087459374925029;42.80351675173872
46382;BME280;66809;52.974;-2.514;2023-10-31T00:17:40;989.7179244716585;;;9.07020817707713;42.83559943294064
46382;BME280;66809;52.974;-2.514;2023-10-31T00:19:40;989.7349339592749;;;9.052167213779232;42.873629499959954
46382;BME280;66809;52.974;-2.514;2023-10-31T00:21:40;989.7518732020184;;;9.03775788666659;42.90523344183658
46382;BME280;66809;52.974;-2.514;2023-10-31T00:23:44;989.7688415433182;;;9.024978535478505;42.935570618362824
46382;BME280;66809;52.974;-2.514;2023-10-31T00:25:40;989.7849885713106;;;9.012249589141003;42.962397284394754
46382;BME280;66809;52.974;-2.514;2023-10-31T00:27:40;989.8000210126781;;;9.004265745455712;42.99664780475426
46382;BME280;66809;52.974;-2.514;2023-10-31T00:29:41;989.8140723507961;;;8.997577800856956;43.02729802653638
46382;BME280;66809;52.974;-2.514;2023-10-31T00:31:40;989.8292243361725;;;8.993872546449188;43.059127300591264
46382;BME280;66809;52.974;-2.514;2023-10-31T00:33:40;989.845102630936;;;8.993912562923724;43.0878257677253
46382;BME280;66809;52.974;-2.514;2023-10-31T00:35:41;989.8585286511071;;;8.98383864268172;43.11923857062269
46382;BME280;66809;52.974;-2.514;2023-10-31T00:37:40;989.8700847930216;;;8.974100797761972;43.14694213639869
46382;BME280;66809;52.974;-2.514;2023-10-31T00:39:40;989.8799005133232;;;8.967530481636727;43.17524655081677
46382;BME280;66809;52.974;-2.514;2023-10-31T00:41:44;989.8892139893651;;;8.975987245402468;43.19379846458283
46382;BME280;66809;52.974;-2.514;2023-10-31T00:43:41;989.8969319371522;;;8.966923552214752;43.2219055244378
46382;BME280;66809;52.974;-2.514;2023-10-31T00:45:40;989.9023163678058;;;8.957574195264828;43.25293834000399
46382;BME280;66809;52.974;-2.514;2023-10-31T00:47:40;989.9072647469112;;;8.9492814937524;43.28219652835599
46382;BME280;66809;52.974;-2.514;2023-10-31T00:49:41;989.9120682837031;;;8.942786806589586;43.3120451275452
46382;BME280;66809;52.974;-2.514;2023-10-31T00:51:40;989.9162896811375;;;8.936739407930226;43.33829863252738
46382;BME280;66809;52.974;-2.514;2023-10-31T00:53:40;989.9195451918987;;;8.936025244396184;43.356355442060405
46382;BME280;66809;52.974;-2.514;2023-10-31T00:55:41;989.9214998234886;;;8.932177164336448;43.37430099151081
46382;BME280;66809;52.974;-2.514;2023-10-31T00:57:40;989.9220333588277;;;8.929276524053876;43.39554228069224
46382;BME280;66809;52.974;-2.514;2023-10-31T00:59:40;989.9225185815357;;;8.936854054980607;43.4187549260098
46382;BME280;66809;52.974;-2.514;2023-10-31T01:01:42;989.9210703115983;;;8.940289442333672;43.44633964205359
46382;BME280;66809;52.974;-2.514;2023-10-31T01:03:42;989.9198366231357;;;8.937271180505423;43.47547607254706
46382;BME280;66809;52.974;-2.514;2023-10-31T01:05:40;989.9156179107199;;;8.920992236845628;43.49983604895594
46382;BME280;66809;52.974;-2.514;2023-10-31T01:07:40;989.9105387201338;;;8.908759055046666;43.531100507026146
46382;BME280;66809;52.974;-2.514;2023-10-31T01:09:40;989.9071648522327;;;8.898538366269474;43.571314698535595
46382;BME280;66809;52.974;-2.514;2023-10-31T01:11:40;989.9034459849137;;;8.884503204134925;43.621270846016635
46382;BME280;66809;52.974;-2.514;2023-10-31T01:13:40;989.8990726250953;;;8.862935497569628;43.67845236777002
46382;BME280;66809;52.974;-2.514;2023-10-31T01:15:40;989.892472579686;;;8.847808111490464;43.73433851964455
46382;BME280;66809;52.974;-2.514;2023-10-31T01:17:41;989.8849160207781;;;8.844689029500305;43.78681381426082
46382;BME280;66809;52.974;-2.514;2023-10-31T01:19:40;989.8771354307185;;;8.824121171537262;43.83597852422304
46382;BME280;66809;52.974;-2.514;2023-10-31T01:21:40;989.8693079736698;;;8.814145150075406;43.88775337963437
46382;BME280;66809;52.974;-2.514;2023-10-31T01:23:40;989.8588736822097;;;8.799524845363075;43.93553319553488
46382;BME280;66809;52.974;-2.514;2023-10-31T01:25:40;989.8477567004305;;;8.780927466809791;43.99305725966942
46382;BME280;66809;52.974;-2.514;2023-10-31T01:27:41;989.8381736137432;;;8.758759293297173;44.05386522685265
46382;BME280;66809;52.974;-2.514;2023-10-31T01:29:40;989.8283457180898;;;8.731409112175244;44.112332451375806
46382;BME280;66809;52.974;-2.514;2023-10-31T01:31:41;989.8180663999985;;;8.708778831210362;44.17147774216048
46382;BME280;66809;52.974;-2.514;2023-10-31T01:33:40;989.8063692102436;;;8.691092836106813;44.228757885392135
46382;BME280;66809;52.974;-2.514;2023-10-31T01:35:40;989.7962977014697;;;8.677142729644604;44.28039900113222
46382;BME280;66809;52.974;-2.514;2023-10-31T01:37:41;989.7877955321787;;;8.66322622328988;44.333312112602435
46382;BME280;66809;52.974;-2.514;2023-10-31T01:39:41;989.7798933286847;;;8.648805588298073;44.390914217399214
46382;BME280;66809;52.974;-2.514;2023-10-31T01:41:41;989.7731677947528;;;8.62476772062927;44.44406956834896
46382;BME280;66809;52.974;-2.514;2023-10-31T01:43:40;989.7657904570893;;;8.609690752144447;44.4897915731982
46382;BME280;66809;52.974;-2.514;2023-10-31T01:45:40;989.7585512504763;;;8.600638949908301;44.53229304349687
46382;BME280;66809;52.974;-2.514;2023-10-31T01:47:40;989.7514467364738;;;8.57759254170587;44.56806414722069
46382;BME280;66809;52.974;-2.514;2023-10-31T01:49:41;989.7464013053774;;;8.569346327738181;44.60562200023671
46382;BME280;66809;52.974;-2.514;2023-10-31T01:51:41;989.743502418997;;;8.565327263079507;44.643756565110856
46382;BME280;66809;52.974;-2.514;2023-10-31T01:53:40;989.7426956758188;;;8.55186543200844;44.679854509101226
46382;BME280;66809;52.974;-2.514;2023-10-31T01:55:41;989.7416209072564;;;8.54544439687952;44.714722681812894
46382;BME280;66809;52.974;-2.514;2023-10-31T01:57:41;989.743150131709;;;8.546181790034394;44.73762464485551
46382;BME280;66809;52.974;-2.514;2023-10-31T01:59:40;989.7452126538828;;;8.534300506180974;44.751347152155326
46382;BME280;66809;52.974;-2.514;2023-10-31T02:01:41;989.7474598884146;;;8.520488760138583;44.76381499684068
46382;BME280;66809;52.974;-2.514;2023-10-31T02:03:40;989.7497736591174;;;8.524101578870333;44.76841935091276
46382;BME280;66809;52.974;-2.514;2023-10-31T02:05:40;989.7536881580759;;;8.5367761026849;44.77389908568376
46382;BME280;66809;52.974;-2.514;2023-10-31T02:07:42;989.7575795225436;;;8.544772740054272;44.776550394907765
46382;BME280;66809;52.974;-2.514;2023-10-31T02:09:40;989.7610486884151;;;8.541836022296842;44.77717168026116
46382;BME280;66809;52.974;-2.514;2023-10-31T02:11:40;989.7650953600892;;;8.54803860292222;44.7729414454687
46382;BME280;66809;52.974;-2.514;2023-10-31T02:13:40;989.7712912931228;;;8.557257467495159;44.761215798295616
46382;BME280;66809;52.974;-2.514;2023-10-31T02:15:41;989.7809422871626;;;8.575766856998472;44.74210402186624
46382;BME280;66809;52.974;-2.514;2023-10-31T02:17:40;989.7947810525555;;;8.575634393838582;44.7288566429903
46382;BME280;66809;52.974;-2.514;2023-10-31T02:19:40;989.8096286226854;;;8.608943998047367;44.71269944319863
46382;BME280;66809;52.974;-2.514;2023-10-31T02:21:40;989.8237411991573;;;8.630712349892585;44.691393525304655
46382;BME280;66809;52.974;-2.514;2023-10-31T02:23:41;989.8395112464269;;;8.64458687359419;44.675166779247775
46382;BME280;66809;52.974;-2.514;2023-10-31T02:25:40;989.8576865697651;;;8.673457828481544;44.647644877866135
46382;BME280;66809;52.974;-2.514;2023-10-31T02:27:40;989.8726702977444;;;8.708621807483675;44.618316615657655
46382;BME280;66809;52.974;-2.514;2023-10-31T02:29:41;989.8870608348308;;;8.74595349731219;44.59133977512591
46382;BME280;66809;52.974;-2.514;2023-10-31T02:31:40;989.8995177015967;;;8.774929242836038;44.55333640005586
46382;BME280;66809;52.974;-2.514;2023-10-31T02:33:40;989.9100712803448;;;8.799389200416083;44.50577188075403
46382;BME280;66809;52.974;-2.514;2023-10-31T02:35:40;989.9207929680127;;;8.82858682715867;44.458568090403496
46382;BME280;66809;52.974;-2.514;2023-10-31T02:37:40;989.9295939990697;;;8.848838391738571;44.42052363282151
46382;BME280;66809;52.974;-2.514;2023-10-31T02:39:41;989.9350586580608;;;8.864550935269678;44.38272563046487
46382;BME280;66809;52.974;-2.514;2023-10-31T02:41:40;989.939284064378;;;8.874828437390741;44.36779171182026
46382;BME280;66809;52.974;-2.514;2023-10-31T02:43:40;989.9449899290469;;;8.888980195161627;44.36465516804777
46382;BME280;66809;52.974;-2.514;2023-10-31T02:45:40;989.9508348815715;;;8.891474553412424;44.368312838903655
46382;BME280;66809;52.974;-2.514;2023-10-31T02:47:40;989.9581747520323;;;8.897666741669736;44.3851205147769
46382;BME280;66809;52.974;-2.514;2023-10-31T02:49:40;989.962638940611;;;8.894114708832952;44.405405539690165
46382;BME280;66809;52.974;-2.514;2023-10-31T02:51:41;989.9658771687142;;;8.883252031651757;44.425580981553374
46382;BME280;66809;52.974;-2.514;2023-10-31T02:53:41;989.9669992953073;;;8.892106657628457;44.46202859356867
46382;BME280;66809;52.974;-2.514;2023-10-31T02:55:40;989.9684993215336;;;8.892981452218063;44.49962890311868
46382;BME280;66809;52.974;-2.514;2023-10-31T02:57:40;989.9692437699301;;;8.89339414227598;44.537716344823295
46382;BME280;66809;52.974;-2.514;2023-10-31T02:59:40;989.9688431419379;;;8.88922680177129;44.586440249336874
46382;BME280;66809;52.974;-2.514;2023-10-31T03:01:40;989.9686052825288;;;8.886134903104972;44.63712197983372
46382;BME280;66809;52.974;-2.514;2023-10-31T03:03:40;989.9690475430965;;;8.881626047567861;44.69179196518065
46382;BME280;66809;52.974;-2.514;2023-10-31T03:05:40;989.9704439160329;;;8.87789560193863;44.74111453867278
46382;BME280;66809;52.974;-2.514;2023-10-31T03:07:41;989.9716392620883;;;8.881996721954518;44.79240074706636
46382;BME280;66809;52.974;-2.514;2023-10-31T03:09:40;989.970812154878;;;8.878215864733132;44.8392874355361
46382;BME280;66809;52.974;-2.514;2023-10-31T03:11:40;989.9684820682261;;;8.876996605460915;44.87237553532862
46382;BME280;66809;52.974;-2.514;2023-10-31T03:13:40;989.963179608632;;;8.869408708880373;44.9084475181174
46382;BME280;66809;52.974;-2.514;2023-10-31T03:15:40;989.9562524470231;;;8.845580928680949;44.956471467785505
46382;BME280;66809;52.974;-2.514;2023-10-31T03:17:41;989.9471312568038;;;8.836243464779036;45.015404685959496
46382;BME280;66809;52.974;-2.514;2023-10-31T03:19:40;989.9378634198423;;;8.816844458203692;45.069663699947355
46382;BME280;66809;52.974;-2.514;2023-10-31T03:21:40;989.9291427640072;;;8.80342858396701;45.13026978430208
46382;BME280;66809;52.974;-2.514;2023-10-31T03:23:41;989.9204984182711;;;8.791923392248107;45.1885251201582
46382;BME280;66809;52.974;-2.514;2023-10-31T03:25:41;989.9124425790002;;;8.768059962637697;45.255950717849586
46382;BME280;66809;52.974;-2.514;2023-10-31T03:27:41;989.9064023149836;;;8.746297992284934;45.30716516707131
46382;BME280;66809;52.974;-2.514;2023-10-31T03:29:40;989.9010479143288;;;8.725031712915701;45.372523458243776
46382;BME280;66809;52.974;-2.514;2023-10-31T03:31:40;989.897074195812;;;8.715767799775035;45.45108225982899
46382;BME280;66809;52.974;-2.514;2023-10-31T03:33:41;989.894862700514;;;8.694996238118286;45.53788057066234
46382;BME280;66809;52.974;-2.514;2023-10-31T03:35:41;989.8921386044861;;;8.674075441700118;45.61260951825164
46382;BME280;66809;52.974;-2.514;2023-10-31T03:37:40;989.8915268749047;;;8.662134320011043;45.6812034928749
46382;BME280;66809;52.974;-2.514;2023-10-31T03:39:40;989.8954544335176;;;8.658494304677227;45.74935130569583
46382;BME280;66809;52.974;-2.514;2023-10-31T03:41:40;989.9006413326292;;;8.657452466873703;45.812652352677596
46382;BME280;66809;52.974;-2.514;2023-10-31T03:43:40;989.906036299886;;;8.65688015079861;45.847605617079
46382;BME280;66809;52.974;-2.514;2023-10-31T03:45:41;989.912086306889;;;8.66930656891152;45.876753659808706
46382;BME280;66809;52.974;-2.514;2023-10-31T03:47:41;989.9170091014928;;;8.690326157414797;45.89276389252049
46382;BME280;66809;52.974;-2.514;2023-10-31T03:49:40;989.9226627722201;;;8.705340356301175;45.89579543532136
46382;BME280;66809;52.974;-2.514;2023-10-31T03:51:40;989.9275741148383;;;8.726452356468858;45.89239940593655
46382;BME280;66809;52.974;-2.514;2023-10-31T03:53:40;989.9326600063008;;;8.731450489780576;45.87366028803399
46382;BME280;66809;52.974;-2.514;2023-10-31T03:55:40;989.9378868388359;;;8.739197038492287;45.86133623338378
46382;BME280;66809;52.974;-2.514;2023-10-31T03:57:41;989.9425292872764;;;8.73585405812968;45.85495434333473
46382;BME280;66809;52.974;-2.514;2023-10-31T03:59:40;989.9479223452859;;;8.752581260476113;45.840376680856295
46382;BME280;66809;52.974;-2.514;2023-10-31T04:01:40;989.9536099160591;;;8.757118286111822;45.8301750023165
46382;BME280;66809;52.974;-2.514;2023-10-31T04:03:40;989.9577683447811;;;8.755840204289198;45.8172419145584
46382;BME280;66809;52.974;-2.514;2023-10-31T04:05:40;989.9597633325482;;;8.761025170335644;45.79325205962466
46382;BME280;66809;52.974;-2.514;2023-10-31T04:07:41;989.9608046516621;;;8.756278097816162;45.77352256884064
46382;BME280;66809;52.974;-2.514;2023-10-31T04:09:40;989.9624713783556;;;8.757568051610642;45.76537080686361
46382;BME280;66809;52.974;-2.514;2023-10-31T04:11:41;989.9645553670532;;;8.758207596174271;45.77820077121478
46382;BME280;66809;52.974;-2.514;2023-10-31T04:13:40;989.9685092718856;;;8.749134520516856;45.79166181053072
46382;BME280;66809;52.974;-2.514;2023-10-31T04:15:40;989.9724592841345;;;8.762183649620619;45.79337255536167
46382;BME280;66809;52.974;-2.514;2023-10-31T04:17:40;989.9755854552789;;;8.763863023008117;45.77968679167558
46382;BME280;66809;52.974;-2.514;2023-10-31T04:19:40;989.9795134922521;;;8.77574429420297;45.77690708115051
46382;BME280;66809;52.974;-2.514;2023-10-31T04:21:41;989.9838303729277;;;8.78093666331486;45.77402317223665
46382;BME280;66809;52.974;-2.514;2023-10-31T04:23:40;989.9881456273154;;;8.785129207578935;45.76060282353923
46382;BME280;66809;52.974;-2.514;2023-10-31T04:25:40;989.9925941952739;;;8.787952244301097;45.74853664774391
46382;BME280;66809;52.974;-2.514;2023-10-31T04:27:41;989.9986997102891;;;8.791287795732009;45.7431021051002
46382;BME280;66809;52.974;-2.514;2023-10-31T04:29:40;990.0049863076636;;;8.79100756656945;45.72409753781816
46382;BME280;66809;52.974;-2.514;2023-10-31T04:31:40;990.0129640309575;;;8.784764957907411;45.69207498166148
46382;BME280;66809;52.974;-2.514;2023-10-31T04:33:40;990.0220651259665;;;8.780604044980247;45.670948027041305
46382;BME280;66809;52.974;-2.514;2023-10-31T04:35:40;990.0317741662548;;;8.780804713928754;45.654689164292016
46382;BME280;66809;52.974;-2.514;2023-10-31T04:37:41;990.0400122505523;;;8.77195554413597;45.63937960396421
46382;BME280;66809;52.974;-2.514;2023-10-31T04:39:40;990.0462399137298;;;8.758831775913087;45.632455679495074
46382;BME280;66809;52.974;-2.514;2023-10-31T04:41:40;990.0504309777385;;;8.746966320587067;45.60834421909809
46382;BME280;66809;52.974;-2.514;2023-10-31T04:43:40;990.0533587363674;;;8.738681070077682;45.59572642872891
46382;BME280;66809;52.974;-2.514;2023-10-31T04:45:40;990.0548390412072;;;8.718718157895752;45.58310145260277
46382;BME280;66809;52.974;-2.514;2023-10-31T04:47:41;990.0562642374392;;;8.702394263493455;45.57484844033924
46382;BME280;66809;52.974;-2.514;2023-10-31T04:49:41;990.0572881129119;;;8.686966408800396;45.57450914911783
46382;BME280;66809;52.974;-2.514;2023-10-31T04:51:41;990.0588955476029;;;8.672474136011317;45.57690347665601
46382;BME280;66809;52.974;-2.514;2023-10-31T04:53:40;990.0608608880534;;;8.64867354865131;45.5848604330608
46382;BME280;66809;52.974;-2.514;2023-10-31T04:55:40;990.0641003694524;;;8.631953790143518;45.588444007316596
46382;BME280;66809;52.974;-2.514;2023-10-31T04:57:40;990.0662092297574;;;8.61933218988729;45.579548155677934
46382;BME280;66809;52.974;-2.514;2023-10-31T04:59:40;990.0685253104338;;;8.603276180373417;45.58508591738878
46382;BME280;66809;52.974;-2.514;2023-10-31T05:01:40;990.0707609124605;;;8.601889907632934;45.57248190560492
46382;BME280;66809;52.974;-2.514;2023-10-31T05:03:41;990.0748919897632;;;8.596991648576667;45.557905836274294
46382;BME280;66809;52.974;-2.514;2023-10-31T05:05:41;990.0816333490372;;;8.577306037193098;45.56157284751191
46382;BME280;66809;52.974;-2.514;2023-10-31T05:07:40;990.0899168029698;;;8.56596450855756;45.571294130990424
46382;BME280;66809;52.974;-2.514;2023-10-31T05:09:41;990.0973038457744;;;8.561026231419051;45.58227888882646
46382;BME280;66809;52.974;-2.514;2023-10-31T05:11:40;990.10579548949;;;8.542339453275957;45.59240702001903
46382;BME280;66809;52.974;-2.514;2023-10-31T05:13:40;990.1131593938153;;;8.543330939366273;45.60027879869775
46382;BME280;66809;52.974;-2.514;2023-10-31T05:15:41;990.1227734870224;;;8.5295014502868;45.61702822653298
46382;BME280;66809;52.974;-2.514;2023-10-31T05:17:40;990.1328914591708;;;8.524748005591984;45.62781952001845
46382;BME280;66809;52.974;-2.514;2023-10-31T05:19:40;990.1435052561917;;;8.50804507180155;45.63665518739198
46382;BME280;66809;52.974;-2.514;2023-10-31T05:21:40;990.1544954598551;;;8.482216688685286;45.62870750958552
46382;BME280;66809;52.974;-2.514;2023-10-31T05:23:40;990.1647618882633;;;8.457102464704594;45.63431324498787
46382;BME280;66809;52.974;-2.514;2023-10-31T05:25:41;990.1736642805173;;;8.448820225551914;45.63738104807469
46382;BME280;66809;52.974;-2.514;2023-10-31T05:27:40;990.1809983834786;;;8.427377617164675;45.64944499733863
46382;BME280;66809;52.974;-2.514;2023-10-31T05:29:40;990.1894116417535;;;8.419447241206479;45.66074490044522
46382;BME280;66809;52.974;-2.514;2023-10-31T05:31:41;990.1974093947758;;;8.412414864202411;45.68349893727124
46382;BME280;66809;52.974;-2.514;2023-10-31T05:33:40;990.2045670576019;;;8.406886422499118;45.687941778604
46382;BME280;66809;52.974;-2.514;2023-10-31T05:35:40;990.209508856772;;;8.403845946940477;45.697332838125206
46382;BME280;66809;52.974;-2.514;2023-10-31T05:37:41;990.2134187690928;;;8.400056698223528;45.70559023539421
46382;BME280;66809;52.974;-2.514;2023-10-31T05:39:40;990.2193068259476;;;8.40193972418008;45.700981124475604
46382;BME280;66809;52.974;-2.514;2023-10-31T05:41:40;990.2283730034857;;;8.395907174720259;45.702009307672306
46382;BME280;66809;52.974;-2.514;2023-10-31T05:43:41;990.2390376559271;;;8.39357145260438;45.71271325616665
46382;BME280;66809;52.974;-2.514;2023-10-31T05:45:40;990.2514123369551;;;8.39280044314423;45.72287849858923
46382;BME280;66809;52.974;-2.514;2023-10-31T05:47:40;990.2642866260163;;;8.388894526722256;45.72409482143957
46382;BME280;66809;52.974;-2.514;2023-10-31T05:49:42;990.2781921792795;;;8.399280259831489;45.727540104700516
46382;BME280;66809;52.974;-2.514;2023-10-31T05:51:40;990.2932349643471;;;8.400430313005161;45.730805236896934
46382;BME280;66809;52.974;-2.514;2023-10-31T05:53:42;990.3081962711766;;;8.415795393448663;45.73614612107427
46382;BME280;66809;52.974;-2.514;2023-10-31T05:55:40;990.3222285144645;;;8.413907894684856;45.7422881491894
46382;BME280;66809;52.974;-2.514;2023-10-31T05:57:40;990.3373012077877;;;8.42603378272283;45.756153428613906
46382;BME280;66809;52.974;-2.514;2023-10-31T05:59:40;990.3523573650177;;;8.436148654962333;45.75490430197896
46382;BME280;66809;52.974;-2.514;2023-10-31T06:01:41;990.3677916026367;;;8.444876217422703;45.7622615201548
46382;BME280;66809;52.974;-2.514;2023-10-31T06:03:41;990.3820335001736;;;8.450060141268924;45.7699161012933
46382;BME280;66809;52.974;-2.514;2023-10-31T06:05:40;990.3966153841787;;;8.458280112154718;45.76968718074318
46382;BME280;66809;52.974;-2.514;2023-10-31T06:07:40;990.410685088062;;;8.461380354653489;45.761054550682275
46382;BME280;66809;52.974;-2.514;2023-10-31T06:09:41;990.42554020705;;;8.465600007403658;45.75149793588266
46382;BME280;66809;52.974;-2.514;2023-10-31T06:11:41;990.4401308528221;;;8.476105286063982;45.728593088735835
46382;BME280;66809;52.974;-2.514;2023-10-31T06:13:40;990.4549906253357;;;8.483122781427525;45.702969258522174
46382;BME280;66809;52.974;-2.514;2023-10-31T06:15:40;990.4679677463098;;;8.500650087906628;45.68310512056075
46382;BME280;66809;52.974;-2.514;2023-10-31T06:17:41;990.4812166295765;;;8.510053735873734;45.6649056975216
46382;BME280;66809;52.974;-2.514;2023-10-31T06:19:40;990.4934244290432;;;8.532452168520305;45.63742860121518
46382;BME280;66809;52.974;-2.514;2023-10-31T06:21:40;990.5057610498538;;;8.54641062946331;45.62701247969472
46382;BME280;66809;52.974;-2.514;2023-10-31T06:23:41;990.5164805234122;;;8.572298815352307;45.62139031163691
46382;BME280;66809;52.974;-2.514;2023-10-31T06:25:40;990.5276901132021;;;8.589705524117155;45.59927224781203
46382;BME280;66809;52.974;-2.514;2023-10-31T06:27:40;990.5398030902595;;;8.610813041035358;45.57655164982476
46382;BME280;66809;52.974;-2.514;2023-10-31T06:29:41;990.5515838372814;;;8.626607599381384;45.55604338238471
46382;BME280;66809;52.974;-2.514;2023-10-31T06:31:40;990.5624934233812;;;8.641050449896625;45.534608456271535
46382;BME280;66809;52.974;-2.514;2023-10-31T06:33:40;990.5745432141065;;;8.644455181617532;45.53008719768699
46382;BME280;66809;52.974;-2.514;2023-10-31T06:35:41;990.5894670378782;;;8.640892738861577;45.530861989384356
46382;BME280;66809;52.974;-2.514;2023-10-31T06:37:40;990.6054729667823;;;8.647790686411655;45.5272083925317
46382;BME280;66809;52.974;-2.514;2023-10-31T06:39:40;990.6201466826295;;;8.655184348449414;45.53272165759193
46382;BME280;66809;52.974;-2.514;2023-10-31T06:41:40;990.6324802628238;;;8.66842572090862;45.54276226749118
46382;BME280;66809;52.974;-2.514;2023-10-31T06:43:40;990.6447793549271;;;8.679927905966519;45.53719393454495
46382;BME280;66809;52.974;-2.514;2023-10-31T06:45:41;990.6557305583789;;;8.697933190397361;45.52853080274004
46382;BME280;66809;52.974;-2.514;2023-10-31T06:47:40;990.6672567755784;;;8.70353528426862;45.53428892897634
46382;BME280;66809;52.974;-2.514;2023-10-31T06:49:40;990.6793611993177;;;8.697024786276234;45.542993798755184
46382;BME280;66809;52.974;-2.514;2023-10-31T06:51:40;990.6909708071037;;;8.700620796237377;45.55549804352841
46382;BME280;66809;52.974;-2.514;2023-10-31T06:53:40;990.7040045359533;;;8.709073108113838;45.55936261693638
46382;BME280;66809;52.974;-2.514;2023-10-31T06:55:40;990.7177784988802;;;8.723171513285461;45.53976156432013
46382;BME280;66809;52.974;-2.514;2023-10-31T06:57:40;990.7320731189859;;;8.737927267079568;45.517360143878726
46382;BME280;66809;52.974;-2.514;2023-10-31T06:59:40;990.7463503971477;;;8.747870705848955;45.4888044966411
46382;BME280;66809;52.974;-2.514;2023-10-31T07:01:41;990.7602787017331;;;8.755543641064241;45.46713269228216
46382;BME280;66809;52.974;-2.514;2023-10-31T07:03:40;990.7751807835216;;;8.769625256130663;45.4619631462078
46382;BME280;66809;52.974;-2.514;2023-10-31T07:05:40;990.7885163283376;;;8.784939967760886;45.44525181127709
46382;BME280;66809;52.974;-2.514;2023-10-31T07:07:41;990.804019868951;;;8.795085042560991;45.42908937416119
46382;BME280;66809;52.974;-2.514;2023-10-31T07:09:40;990.8207099499646;;;8.819499038114161;45.397313218205824
46382;BME280;66809;52.974;-2.514;2023-10-31T07:11:40;990.8376933609106;;;8.837571574886649;45.36727502449912
46382;BME280;66809;52.974;-2.514;2023-10-31T07:13:40;990.855785575201;;;8.852419769054245;45.34133709477563
46382;BME280;66809;52.974;-2.514;2023-10-31T07:15:40;990.8730840730221;;;8.872057085570225;45.304498607593764
46382;BME280;66809;52.974;-2.514;2023-10-31T07:17:40;990.8899393554714;;;8.888324272437208;45.26551214768511